Map

Track Data

SID SEASON NUMBER BASIN SUBBASIN NAME ISO_TIME NATURE LAT LON WMO_WIND WMO_PRES WMO_AGENCY TRACK_TYPE DIST2LAND LANDFALL IFLAG USA_AGENCY USA_ATCF_ID USA_LAT USA_LON USA_RECORD USA_STATUS USA_WIND USA_PRES USA_SSHS USA_R34_NE USA_R34_SE USA_R34_SW USA_R34_NW USA_R50_NE USA_R50_SE USA_R50_SW USA_R50_NW USA_R64_NE USA_R64_SE USA_R64_SW USA_R64_NW USA_POCI USA_ROCI USA_RMW USA_EYE TOKYO_LAT TOKYO_LON TOKYO_GRADE TOKYO_WIND TOKYO_PRES TOKYO_R50_DIR TOKYO_R50_LONG TOKYO_R50_SHORT TOKYO_R30_DIR TOKYO_R30_LONG TOKYO_R30_SHORT TOKYO_LAND CMA_LAT CMA_LON CMA_CAT CMA_WIND CMA_PRES HKO_LAT HKO_LON HKO_CAT HKO_WIND HKO_PRES NEWDELHI_LAT NEWDELHI_LON NEWDELHI_GRADE NEWDELHI_WIND NEWDELHI_PRES NEWDELHI_CI NEWDELHI_DP NEWDELHI_POCI REUNION_LAT REUNION_LON REUNION_TYPE REUNION_WIND REUNION_PRES REUNION_TNUM REUNION_CI REUNION_RMW REUNION_R34_NE REUNION_R34_SE REUNION_R34_SW REUNION_R34_NW REUNION_R50_NE REUNION_R50_SE REUNION_R50_SW REUNION_R50_NW REUNION_R64_NE REUNION_R64_SE REUNION_R64_SW REUNION_R64_NW BOM_LAT BOM_LON BOM_TYPE BOM_WIND BOM_PRES BOM_TNUM BOM_CI BOM_RMW BOM_R34_NE BOM_R34_SE BOM_R34_SW BOM_R34_NW BOM_R50_NE BOM_R50_SE BOM_R50_SW BOM_R50_NW BOM_R64_NE BOM_R64_SE BOM_R64_SW BOM_R64_NW BOM_ROCI BOM_POCI BOM_EYE BOM_POS_METHOD BOM_PRES_METHOD NADI_LAT NADI_LON NADI_CAT NADI_WIND NADI_PRES WELLINGTON_LAT WELLINGTON_LON WELLINGTON_WIND WELLINGTON_PRES DS824_LAT DS824_LON DS824_STAGE DS824_WIND DS824_PRES TD9636_LAT TD9636_LON TD9636_STAGE TD9636_WIND TD9636_PRES TD9635_LAT TD9635_LON TD9635_WIND TD9635_PRES TD9635_ROCI NEUMANN_LAT NEUMANN_LON NEUMANN_CLASS NEUMANN_WIND NEUMANN_PRES MLC_LAT MLC_LON MLC_CLASS MLC_WIND MLC_PRES USA_GUST BOM_GUST BOM_GUST_PER REUNION_GUST REUNION_GUST_PER USA_SEAHGT USA_SEARAD_NE USA_SEARAD_SE USA_SEARAD_SW USA_SEARAD_NW STORM_SPEED STORM_DIR
1934025S14068 1934 10 SI MM NOT_NAMED 1934-01-25 06:00:00 NR -14.1000 67.5000 reunion main 1238 1238 _____O________ -1 -14.1000 67.5000 99 9.90000 1 75
1934025S14068 1934 10 SI MM NOT_NAMED 1934-01-25 09:00:00 NR -14.0898 67.5406 main 1238 1238 _____P________ -1 -14.0898 67.5406 99 1 79
1934025S14068 1934 10 SI MM NOT_NAMED 1934-01-25 12:00:00 NR -14.0865 67.5714 main 1247 1247 _____P________ -1 -14.0865 67.5714 99 0 101
1934025S14068 1934 10 SI MM NOT_NAMED 1934-01-25 15:00:00 NR -14.0971 67.5825 main 1247 1247 _____P________ -1 -14.0971 67.5825 99 0 0
1934025S14068 1934 10 SI MM NOT_NAMED 1934-01-25 18:00:00 NR -14.1285 67.5643 main 1247 1232 _____P________ -1 -14.1285 67.5643 99 1 216
1934025S14068 1934 10 SI MM NOT_NAMED 1934-01-25 21:00:00 NR -14.1876 67.5069 main 1232 1217 _____P________ -1 -14.1876 67.5069 99 2 226
1934025S14068 1934 10 SI MM NOT_NAMED 1934-01-26 00:00:00 NR -14.2813 67.4003 main 1217 1193 _____P________ -1 -14.2813 67.4003 99 4 229
1934025S14068 1934 10 SI MM NOT_NAMED 1934-01-26 03:00:00 NR -14.4165 67.2347 main 1193 1162 _____P________ -1 -14.4165 67.2347 99 5 231
1934025S14068 1934 10 SI MM NOT_NAMED 1934-01-26 06:00:00 NR -14.6000 67.0000 reunion main 1162 1123 _____O________ -1 -14.6000 67.0000 99 9.90000 7 232
1934025S14068 1934 10 SI MM NOT_NAMED 1934-01-26 09:00:00 NR -14.8356 66.6894 main 1123 1084 _____P________ -1 -14.8356 66.6894 99 8 236
1934025S14068 1934 10 SI MM NOT_NAMED 1934-01-26 12:00:00 NR -15.0321 66.3282 main 1075 1012 _____P____O___ -1 -15.1151 66.3102 99 -14.7000 66.4000 2 10 239
1934025S14068 1934 10 SI MM NOT_NAMED 1934-01-26 15:00:00 NR -15.3663 65.7648 main 1005 924 _____P____P___ -1 -15.4276 65.8731 99 -15.2439 65.5484 2 14 238
1934025S14068 1934 10 SI MM NOT_NAMED 1934-01-26 18:00:00 NR -15.7606 65.1044 main 918 846 _____P____P___ -1 -15.7619 65.3887 99 -15.7588 64.7252 2 15 238
1934025S14068 1934 10 SI MM NOT_NAMED 1934-01-26 21:00:00 NR -16.1632 64.4162 main 831 759 _____P____P___ -1 -16.1072 64.8681 99 -16.2192 63.9643 2 15 239
1934025S14068 1934 10 SI MM NOT_NAMED 1934-01-27 00:00:00 TS -16.5344 63.7544 main 759 687 _____P___OO___ -1 -16.4524 64.3223 99 -16.6000 63.3000 TC 35 -16.6000 63.3000 2 14 241
1934025S14068 1934 10 SI MM NOT_NAMED 1934-01-27 03:00:00 TS -16.8276 63.1768 main 687 624 _____P___PP___ -1 -16.7869 63.7625 99 -16.7902 62.8501 TC 35 -16.8871 62.7545 2 12 243
1934025S14068 1934 10 SI MM NOT_NAMED 1934-01-27 06:00:00 TS -17.0756 62.6545 reunion main 624 568 _____O___OP___ -1 -17.1000 63.2000 99 9.90000 -17.0000 62.4000 TC 35 -17.1079 62.2999 2 11 244
1934025S14068 1934 10 SI MM NOT_NAMED 1934-01-27 09:00:00 TS -17.2937 62.1677 main 568 511 _____P___PP___ -1 -17.3387 62.6578 99 -17.2424 61.9499 TC 35 -17.2999 61.8955 2 10 244
1934025S14068 1934 10 SI MM NOT_NAMED 1934-01-27 12:00:00 TS -17.5197 61.7007 main 511 455 _____P___OO___ -1 -17.5592 62.1021 99 -17.5000 61.5000 TC 35 -17.5000 61.5000 2 10 243
1934025S14068 1934 10 SI MM NOT_NAMED 1934-01-27 15:00:00 TS -17.7579 61.2093 main 449 393 _____P___PP___ -1 -17.7668 61.5402 99 -17.7424 61.0498 TC 35 -17.7646 61.0378 2 11 243
1934025S14068 1934 10 SI MM NOT_NAMED 1934-01-27 18:00:00 TS -18.0031 60.7191 main 393 346 _____P___OP___ -1 -17.9668 60.9797 99 -18.0000 60.6000 TC 35 -18.0424 60.5775 2 11 241
1934025S14068 1934 10 SI MM NOT_NAMED 1934-01-27 21:00:00 TS -18.2629 60.2330 main 330 283 _____P___PP___ -1 -18.1647 60.4281 99 -18.2999 60.1425 TC 35 -18.3240 60.1284 2 10 240
1934025S14068 1934 10 SI MM NOT_NAMED 1934-01-28 00:00:00 TS -18.5219 59.7642 main 283 229 _____P___OO___ -1 -18.3657 59.8926 99 -18.6000 59.7000 TC 35 -18.6000 59.7000 2 10 240
1934025S14068 1934 10 SI MM NOT_NAMED 1934-01-28 03:00:00 TS -18.7605 59.3241 main 222 175 _____P___PP___ -1 -18.5756 59.3808 99 -18.8574 59.2848 TC 35 -18.8485 59.3068 2 9 240
1934025S14068 1934 10 SI MM NOT_NAMED 1934-01-28 06:00:00 TS -18.9973 58.9113 reunion main 175 137 _____O___OP___ -1 -18.8000 58.9000 99 9.90000 -19.1000 58.9000 TC 35 -19.0918 58.9340 2 9 237
1934025S14068 1934 10 SI MM NOT_NAMED 1934-01-28 09:00:00 TS -19.2477 58.5302 main 130 85 _____P___PP___ -1 -19.0615 58.4717 99 -19.3423 58.5498 TC 35 -19.3392 58.5692 2 9 234
1934025S14068 1934 10 SI MM NOT_NAMED 1934-01-28 12:00:00 TS -19.5122 58.1577 main 85 35 _____P___OO___ -1 -19.3367 58.0731 99 -19.6000 58.2000 TC 35 -19.6000 58.2000 2 9 232
1934025S14068 1934 10 SI MM NOT_NAMED 1934-01-28 15:00:00 TS -19.8029 57.7698 main 35 10 _____P___PP___ -1 -19.6225 57.6987 99 -19.8925 57.8074 TC 35 -19.8936 57.8031 2 9 231
1934025S14068 1934 10 SI MM NOT_NAMED 1934-01-28 18:00:00 TS -20.1052 57.3811 main 10 10 _____P___OP___ -1 -19.9159 57.3431 99 -20.2000 57.4000 TC 35 -20.1998 57.4000 2 9 230
1934025S14068 1934 10 SI MM NOT_NAMED 1934-01-28 21:00:00 TS -20.4090 56.9967 main 33 33 _____P___PP___ -1 -20.2135 57.0009 99 -20.5075 56.9924 TC 35 -20.5061 56.9968 2 9 230
1934025S14068 1934 10 SI MM NOT_NAMED 1934-01-29 00:00:00 TS -20.7041 56.6222 main 76 53 _____P___OO___ -1 -20.5122 56.6666 99 -20.8000 56.6000 TC 35 -20.8000 56.6000 2 9 230
1934025S14068 1934 10 SI MM NOT_NAMED 1934-01-29 03:00:00 TS -20.9781 56.2673 main 53 10 _____P___PP___ -1 -20.8088 56.3348 99 -21.0573 56.2498 TC 35 -21.0681 56.2173 2 9 231
1934025S14068 1934 10 SI MM NOT_NAMED 1934-01-29 06:00:00 TS -21.2407 55.9139 reunion main 10 0 _____O___OP___ -1 -21.1000 56.0000 99 9.90000 -21.3000 55.9000 TC 35 -21.3221 55.8418 2 9 233
1934025S14068 1934 10 SI MM NOT_NAMED 1934-01-29 09:00:00 TS -21.5019 55.5322 main 15 15 _____P___PP___ -1 -21.3907 55.6261 99 -21.5500 55.4999 TC 35 -21.5650 55.4705 2 9 234
1934025S14068 1934 10 SI MM NOT_NAMED 1934-01-29 12:00:00 TS -21.7599 55.1503 main 56 56 _____P___OO___ -1 -21.6796 55.2510 99 -21.8000 55.1000 TC 35 -21.8000 55.1000 2 9 233
1934025S14068 1934 10 SI MM NOT_NAMED 1934-01-29 15:00:00 TS -22.0217 54.7838 main 93 93 _____P___PP___ -1 -21.9637 54.8768 99 -22.0573 54.7499 TC 35 -22.0441 54.7248 2 9 233
1934025S14068 1934 10 SI MM NOT_NAMED 1934-01-29 18:00:00 TS -22.2731 54.4185 main 145 145 _____P___OP___ -1 -22.2397 54.5058 99 -22.3000 54.4000 TC 35 -22.2796 54.3498 2 8 235
1934025S14068 1934 10 SI MM NOT_NAMED 1934-01-29 21:00:00 TS -22.5066 54.0384 main 189 189 _____P___PP___ -1 -22.5044 54.1403 99 -22.5150 54.0000 TC 35 -22.5004 53.9749 2 8 238
1934025S14068 1934 10 SI MM NOT_NAMED 1934-01-30 00:00:00 TS -22.7183 53.6608 main 227 227 _____P___OO___ -1 -22.7548 53.7826 99 -22.7000 53.6000 TC 35 -22.7000 53.6000 2 8 240
1934025S14068 1934 10 SI MM NOT_NAMED 1934-01-30 03:00:00 TS -22.9041 53.3031 main 272 272 _____P___PP___ -1 -22.9877 53.4350 99 -22.8573 53.2498 TC 35 -22.8672 53.2244 2 7 242
1934025S14068 1934 10 SI MM NOT_NAMED 1934-01-30 06:00:00 TS -23.0715 52.9497 reunion main 318 318 _____O___OP___ -1 -23.2000 53.1000 99 9.90000 -23.0000 52.9000 TC 35 -23.0146 52.8492 2 7 244
1934025S14068 1934 10 SI MM NOT_NAMED 1934-01-30 09:00:00 TS -23.2240 52.5932 main 349 349 _____P___PP___ -1 -23.3747 52.8051 99 -23.1425 52.4999 TC 35 -23.1547 52.4744 2 7 245
1934025S14068 1934 10 SI MM NOT_NAMED 1934-01-30 12:00:00 TS -23.3759 52.2421 main 395 395 _____P___OO___ -1 -23.5276 52.5262 99 -23.3000 52.1000 TC 35 -23.3000 52.1000 2 7 243
1934025S14068 1934 10 SI MM NOT_NAMED 1934-01-30 15:00:00 TS -23.5467 51.9091 main 424 398 _____P___PP___ -1 -23.6644 52.2565 99 -23.4998 51.7500 TC 35 -23.4757 51.7209 2 7 241
1934025S14068 1934 10 SI MM NOT_NAMED 1934-01-30 18:00:00 TS -23.7160 51.5772 main 398 360 _____P___OP___ -1 -23.7907 51.9889 99 -23.7000 51.4000 TC 35 -23.6572 51.3425 2 7 243
1934025S14068 1934 10 SI MM NOT_NAMED 1934-01-30 21:00:00 TS -23.8682 51.2281 main 360 332 _____P___PP___ -1 -23.9119 51.7166 99 -23.8575 50.9999 TC 35 -23.8351 50.9678 2 7 245
1934025S14068 1934 10 SI MM NOT_NAMED 1934-01-31 00:00:00 TS -24.0112 50.8775 main 332 305 _____P___OO___ -1 -24.0336 51.4325 99 -24.0000 50.6000 TC 35 -24.0000 50.6000 2 7 246
1934025S14068 1934 10 SI MM NOT_NAMED 1934-01-31 03:00:00 TS -24.1498 50.5393 main 295 273 _____P___PP___ -1 -24.1611 51.1293 99 -24.1574 50.2425 TC 35 -24.1309 50.2462 2 7 246
1934025S14068 1934 10 SI MM NOT_NAMED 1934-01-31 06:00:00 TS -24.2832 50.1997 reunion main 273 247 _____O___OP___ -1 -24.3000 50.8000 99 9.90000 -24.3000 49.9000 TC 35 -24.2495 49.8991 2 7 248
1934025S14068 1934 10 SI MM NOT_NAMED 1934-01-31 09:00:00 TS -24.4072 49.8301 main 237 210 _____P___PP___ -1 -24.4534 50.3805 99 -24.3999 49.5573 TC 35 -24.3684 49.5525 2 7 250
1934025S14068 1934 10 SI MM NOT_NAMED 1934-01-31 12:00:00 TS -24.5377 49.4437 main 200 175 _____P___OO___ -1 -24.6131 49.9310 99 -24.5000 49.2000 TC 35 -24.5000 49.2000 2 8 249
1934025S14068 1934 10 SI MM NOT_NAMED 1934-01-31 15:00:00 TS -24.6866 49.0305 main 170 135 _____P___PP___ -1 -24.7806 49.4638 99 -24.6350 48.8000 TC 35 -24.6443 48.8278 2 8 247
1934025S14068 1934 10 SI MM NOT_NAMED 1934-01-31 18:00:00 TS -24.8541 48.6136 main 138 106 _____P___OP___ -1 -24.9576 48.9914 99 -24.8000 48.4000 TC 35 -24.8049 48.4494 2 8 245
1934025S14068 1934 10 SI MM NOT_NAMED 1934-01-31 21:00:00 TS -25.0396 48.2133 main 106 73 _____P___PP___ -1 -25.1459 48.5263 99 -24.9849 48.0424 TC 35 -24.9880 48.0714 2 8 241
1934025S14068 1934 10 SI MM NOT_NAMED 1934-02-01 00:00:00 TS -25.2492 47.8270 main 73 60 _____P___OO___ -1 -25.3477 48.0809 99 -25.2000 47.7000 TC 35 -25.2000 47.7000 2 8 238
1934025S14068 1934 10 SI MM NOT_NAMED 1934-02-01 03:00:00 TS -25.4794 47.4388 main 60 53 _____P___PP___ -1 -25.5649 47.6680 99 -25.4349 47.3499 TC 35 -25.4384 47.2987 2 8 235
1934025S14068 1934 10 SI MM NOT_NAMED 1934-02-01 06:00:00 TS -25.7351 47.0703 reunion main 63 63 _____O___OP___ -1 -25.8000 47.3000 99 9.90000 -25.7000 47.0000 TC 35 -25.7054 46.9109 2 8 230
1934025S14068 1934 10 SI MM NOT_NAMED 1934-02-01 09:00:00 TS -26.0255 46.7225 main 89 89 _____P___PP___ -1 -26.0892 46.9799 99 -25.9926 46.6201 TC 35 -25.9947 46.5675 2 8 224
1934025S14068 1934 10 SI MM NOT_NAMED 1934-02-01 12:00:00 TS -26.3339 46.4324 main 117 117 _____P___OO___ -1 -26.4018 46.6971 99 -26.3000 46.3000 TC 35 -26.3000 46.3000 2 8 216
1934025S14068 1934 10 SI MM NOT_NAMED 1934-02-01 15:00:00 TS -26.6454 46.2265 main 131 131 _____P___PP___ -1 -26.7279 46.4519 99 -26.5924 46.0974 TC 35 -26.6159 46.1303 2 7 204
1934025S14068 1934 10 SI MM NOT_NAMED 1934-02-01 18:00:00 TS -26.9747 46.1102 main 167 167 _____P___OP___ -1 -27.0571 46.2443 99 -26.9000 46.0000 TC 35 -26.9396 46.0416 2 7 194
1934025S14068 1934 10 SI MM NOT_NAMED 1934-02-01 21:00:00 TS -27.3167 46.0342 main 196 196 _____P___PP___ -1 -27.3791 46.0749 99 -27.2400 45.9800 TC 35 -27.2685 46.0071 2 7 191
1934025S14068 1934 10 SI MM NOT_NAMED 1934-02-02 00:00:00 TS -27.6559 45.9627 main 239 237 _____P___OO___ -1 -27.6839 45.9441 99 -27.6000 46.0000 TC 35 -27.6000 46.0000 2 7 194
1934025S14068 1934 10 SI MM NOT_NAMED 1934-02-02 03:00:00 NR -27.9609 45.8523 main 270 269 _____P________ -1 -27.9609 45.8523 99 TC 2 6 195
1934025S14068 1934 10 SI MM NOT_NAMED 1934-02-02 06:00:00 NR -28.2000 45.8000 reunion main 291 291 _____O________ -1 -28.2000 45.8000 99 9.90000 2 4 186
1934025S14068 1934 10 SI MM NOT_NAMED 1934-02-02 09:00:00 NR -28.3934 45.7868 main 314 314 _____P________ -1 -28.3934 45.7868 99 2 3 177
1934025S14068 1934 10 SI MM NOT_NAMED 1934-02-02 12:00:00 NR -28.5445 45.8088 main 325 325 _____P________ -1 -28.5445 45.8088 99 3 166
1934025S14068 1934 10 SI MM NOT_NAMED 1934-02-02 15:00:00 NR -28.6594 45.8609 main 348 348 _____P________ -1 -28.6594 45.8609 99 2 151
1934025S14068 1934 10 SI MM NOT_NAMED 1934-02-02 18:00:00 NR -28.7440 45.9384 main 348 348 _____P________ -1 -28.7440 45.9384 99 2 134
1934025S14068 1934 10 SI MM NOT_NAMED 1934-02-02 21:00:00 NR -28.8043 46.0361 main 360 360 _____P________ -1 -28.8043 46.0361 99 2 119
1934025S14068 1934 10 SI MM NOT_NAMED 1934-02-03 00:00:00 NR -28.8464 46.1489 main 362 362 _____P________ -1 -28.8464 46.1489 99 2 109
1934025S14068 1934 10 SI MM NOT_NAMED 1934-02-03 03:00:00 NR -28.8763 46.2719 main 376 376 _____P________ -1 -28.8763 46.2719 99 2 104
1934025S14068 1934 10 SI MM NOT_NAMED 1934-02-03 06:00:00 NR -28.9000 46.4000 reunion main 379 _____O________ -1 -28.9000 46.4000 99 9.90000 2 102

About IBTrACS Database

This database is a web-friendly format of International Best Track Archive for Climate Stewardship (IBTrACS), a global best track data archive curated by NOAA dating back to 1842.

Updated: 2021-10-08